Briefing drone pour Valence (LFLU)

Rechercher une autre localisation

Conditions de vol :


Nous sommes le : Vendredi 22 octobre 2021
Il est 11:55 UTC (13:55 LT)

Lever de soleil : 05:38 UTC (07:38 LT)
Coucher de soleil : 17:10 UTC (19:10 LT)

Météo

L'essentiel des conditions de vol

VIGILANCE MÉTÉO FRANCE - Drôme (26)
Pas de vigilances particulieres
CARTES DES FRONTS
METAR de LFLU
LFLU 221130Z AUTO 35018KT 9999 FEW035 SCT062 16/08 Q1020

Date d'émission: 22/10/2021
Heure d'émission: 11:30 UTC
Vent: 350° pour 18 KT (33 km/h)
Visibilité horizontale: > 10 km
Plafond :
- Peu de nuages à 3500ft (1067m)
- Nuages épars à 6200ft (1890m)
Température: 16 °C
Point de rosée: 8 °C
Humidité: 59%
Pression (QNH): 1020 hPa
Prévision 24h pour Valence
Vent : 21° pour 4 KT (15 km/h)
Temperature Maxi: 4 °C
Temperature Min: 4 °C
Humidité : 83%
Condition : Ciel dégagé



Warning: count(): Parameter must be an array or an object that implements Countable in /homepages/6/d509196549/htdocs/droneoxygene/briefing.php on line 743
WEBCAM POUR VALENCE

Réglementation

Voler en sécurité

CARTES AERONAUTIQUE 1/500.000
CARTES VAC (LFLU)
SUP AIP




Chargement des AIP...
NOTAM (VALENCE + Terrain à proximité / FIR )




Chargement des NOTAMS...
CONTACT PREFECTURE 26
Drôme (26) : ddt-satem@drome.gouv.fr


Avertissement : Les données mises à disposition sont indicatives. Oxygène Drone ne pourra être tenu responsable de dégâts causés aux biens et aux personnes.